METAR Data
IDs: Format: Raw Decoded Include TAF

Data at: 0631 UTC 19 Aug 2019

KHRO 190553Z AUTO 00000KT 10SM FEW095 24/22 A3000 RMK AO2 SLP142 T02390217 10294 20239 403220228 51007
KHRO 190453Z AUTO 15006KT 10SM SCT100 24/22 A3000 RMK AO2 SLP140 T02440222
KHRO 190353Z AUTO 13004KT 10SM OVC100 25/22 A3000 RMK AO2 SLP140 T02500222
KHRO 190253Z AUTO 00000KT 10SM SCT100 25/22 A2998 RMK AO2 SLP136 T02500217 52021
KHRO 190153Z AUTO 19003KT 10SM SCT110 26/22 A2997 RMK AO2 SLP131 T02560222
KHRO 190053Z AUTO 15004KT 10SM CLR 27/23 A2994 RMK AO2 SLP120 T02720228
KHRO 182353Z AUTO 20004KT 10SM CLR 29/22 A2992 RMK AO2 SLP114 60000 T02940217 10322 20278 53007
KHRO 182253Z AUTO 00000KT 10SM CLR 32/23 A2991 RMK AO2 SLP109 T03170228
KHRO 182153Z AUTO 31003KT 10SM CLR 32/23 A2990 RMK AO2 SLP107 T03170233
KHRO 182053Z AUTO 00000KT 10SM CLR 29/23 A2990 RMK AO2 SLP105 60000 T02940228 58018
KHRO 181953Z AUTO 21008KT 10SM FEW100 28/23 A2992 RMK AO2 RAB00E17 SLP114 P0000 T02780228
KHRO 181853Z AUTO VRB04KT 10SM CLR 29/23 A2996 RMK AO2 LTG DSNT E SLP127 T02890228
KHRO 181838Z AUTO 23004KT 10SM FEW036 29/23 A2995 RMK AO2 LTG DSNT NE AND E T02940228
KHRO 181823Z AUTO 24007KT 10SM VCTS FEW038 30/23 A2995 RMK AO2 LTG DSNT NE AND E T03000228
KHRO 181816Z AUTO 25008KT 10SM FEW038 31/23 A2995 RMK AO2 LTG DSNT NE AND E AND SW T03060233
KHRO 181753Z AUTO 26007G18KT 10SM VCTS SCT040 SCT070 32/23 A2995 RMK AO2 LTG DSNT NE SLP124 T03170228 10322 20228 58005
KHRO 181653Z AUTO 27011G17KT 10SM FEW035 32/23 A2997 RMK AO2 SLP130 T03170233
KHRO 181553Z AUTO 19007KT 10SM FEW031 31/24 A2998 RMK AO2 SLP135 T03060239
KHRO 181453Z AUTO 24005KT 10SM CLR 28/22 A2997 RMK AO2 SLP130 T02780222 51006
KHRO 181353Z AUTO 00000KT 10SM FEW038 25/21 A2996 RMK AO2 SLP129 T02500206
KHRO 181326Z AUTO 31005KT 10SM SCT025 BKN040 BKN110 25/21 A2998 RMK AO2 T02500206
KHRO 181302Z AUTO 34007KT 10SM BKN023 BKN060 OVC080 24/21 A2999 RMK AO2 T02390206
KHRO 181253Z AUTO 32010KT 10SM SCT023 SCT041 BKN060 24/21 A2999 RMK AO2 LTG DSNT NW SLP137 T02440206
KHRO 181153Z AUTO 32003KT 9SM CLR 23/21 A2995 RMK AO2 PRESRR SLP124 T02330206 10256 20233 53015
KHRO 181053Z AUTO 17007KT 10SM CLR 24/21 A2992 RMK AO2 SLP112 T02390206
KHRO 180953Z AUTO 18007KT 10SM CLR 25/21 A2992 RMK AO2 SLP111 T02500206
KHRO 180853Z AUTO 18004KT 10SM CLR 25/21 A2990 RMK AO2 SLP106 T02500211 56004
KHRO 180753Z AUTO 17006KT 10SM CLR 24/21 A2990 RMK AO2 SLP107 T02390206
KHRO 180653Z AUTO 12003KT 10SM CLR 24/21 A2991 RMK AO2 SLP109 T02440206
KHRO 180553Z AUTO 15006KT 10SM CLR 25/21 A2992 RMK AO2 SLP111 T02500206 10300 20250 403220200 50002
KHRO 180453Z AUTO 16006KT 10SM CLR 25/21 A2993 RMK AO2 SLP117 T02500211
KHRO 180353Z AUTO 17009KT 10SM CLR 26/21 A2993 RMK AO2 SLP115 T02610211
KHRO 180253Z AUTO 15009KT 10SM CLR 27/21 A2991 RMK AO2 SLP110 T02670211 53007
KHRO 180153Z AUTO 14009KT 10SM CLR 27/22 A2989 RMK AO2 SLP104 T02720217
KHRO 180053Z AUTO 15010KT 10SM CLR 29/22 A2989 RMK AO2 SLP105 T02890217
KHRO 172353Z AUTO 16009KT 10SM CLR 30/21 A2989 RMK AO2 SLP103 T03000206 10322 20300 58012
KHRO 172253Z AUTO 16012KT 10SM CLR 32/21 A2990 RMK AO2 SLP109 T03170206
KHRO 172153Z AUTO 16010G17KT 10SM CLR 32/21 A2991 RMK AO2 SLP112 T03170211
KHRO 172053Z AUTO 18007KT 10SM CLR 31/21 A2992 RMK AO2 SLP116 T03110211 56018
KHRO 171953Z AUTO 18008KT 10SM CLR 32/21 A2994 RMK AO2 SLP121 T03170206
KHRO 171853Z AUTO 24005KT 10SM CLR 31/21 A2995 RMK AO2 SLP125 T03110211